sensor_id;sensor_type;location;lat;lon;timestamp;P1;durP1;ratioP1;P2;durP2;ratioP2
10667;SDS011;5382;42.136;24.796;2023-03-15T00:00:33;8.35;;;3.08;;
10667;SDS011;5382;42.136;24.796;2023-03-15T00:03:00;5.28;;;3.72;;
10667;SDS011;5382;42.136;24.796;2023-03-15T00:05:28;10.00;;;3.90;;
10667;SDS011;5382;42.136;24.796;2023-03-15T00:07:56;4.57;;;2.88;;
10667;SDS011;5382;42.136;24.796;2023-03-15T00:10:22;5.82;;;4.10;;
10667;SDS011;5382;42.136;24.796;2023-03-15T00:12:49;6.50;;;3.33;;
10667;SDS011;5382;42.136;24.796;2023-03-15T00:15:16;5.13;;;3.33;;
10667;SDS011;5382;42.136;24.796;2023-03-15T00:17:44;4.20;;;2.88;;
10667;SDS011;5382;42.136;24.796;2023-03-15T00:20:11;6.90;;;3.13;;
10667;SDS011;5382;42.136;24.796;2023-03-15T00:22:40;4.03;;;3.33;;
10667;SDS011;5382;42.136;24.796;2023-03-15T00:25:07;8.85;;;3.80;;
10667;SDS011;5382;42.136;24.796;2023-03-15T00:27:34;4.05;;;2.88;;
10667;SDS011;5382;42.136;24.796;2023-03-15T00:30:01;4.75;;;3.50;;
10667;SDS011;5382;42.136;24.796;2023-03-15T00:32:28;7.03;;;3.25;;
10667;SDS011;5382;42.136;24.796;2023-03-15T00:34:57;6.38;;;3.72;;
10667;SDS011;5382;42.136;24.796;2023-03-15T00:37:23;6.25;;;4.10;;
10667;SDS011;5382;42.136;24.796;2023-03-15T00:39:51;6.80;;;3.88;;
10667;SDS011;5382;42.136;24.796;2023-03-15T00:42:19;8.93;;;4.10;;
10667;SDS011;5382;42.136;24.796;2023-03-15T00:44:51;6.30;;;3.88;;
10667;SDS011;5382;42.136;24.796;2023-03-15T00:47:19;6.75;;;3.78;;
10667;SDS011;5382;42.136;24.796;2023-03-15T00:49:46;4.38;;;3.35;;
10667;SDS011;5382;42.136;24.796;2023-03-15T00:52:16;7.55;;;4.45;;
10667;SDS011;5382;42.136;24.796;2023-03-15T00:54:43;7.22;;;4.65;;
10667;SDS011;5382;42.136;24.796;2023-03-15T00:57:10;5.95;;;4.25;;
10667;SDS011;5382;42.136;24.796;2023-03-15T00:59:36;7.57;;;4.25;;
10667;SDS011;5382;42.136;24.796;2023-03-15T01:02:04;5.25;;;4.13;;
10667;SDS011;5382;42.136;24.796;2023-03-15T01:04:31;9.35;;;4.47;;
10667;SDS011;5382;42.136;24.796;2023-03-15T01:06:58;9.02;;;4.32;;
10667;SDS011;5382;42.136;24.796;2023-03-15T01:09:26;4.65;;;3.50;;
10667;SDS011;5382;42.136;24.796;2023-03-15T01:11:54;6.80;;;3.85;;
10667;SDS011;5382;42.136;24.796;2023-03-15T01:14:21;6.60;;;4.47;;
10667;SDS011;5382;42.136;24.796;2023-03-15T01:16:48;5.65;;;3.92;;
10667;SDS011;5382;42.136;24.796;2023-03-15T01:19:15;5.50;;;4.50;;
10667;SDS011;5382;42.136;24.796;2023-03-15T01:21:42;4.93;;;3.97;;
10667;SDS011;5382;42.136;24.796;2023-03-15T01:24:12;6.53;;;3.67;;
10667;SDS011;5382;42.136;24.796;2023-03-15T01:26:41;8.52;;;4.32;;
10667;SDS011;5382;42.136;24.796;2023-03-15T01:29:08;7.97;;;4.63;;
10667;SDS011;5382;42.136;24.796;2023-03-15T01:31:36;7.55;;;4.60;;
10667;SDS011;5382;42.136;24.796;2023-03-15T01:34:02;5.07;;;4.15;;
10667;SDS011;5382;42.136;24.796;2023-03-15T01:36:29;6.00;;;3.65;;
10667;SDS011;5382;42.136;24.796;2023-03-15T01:38:56;5.15;;;3.70;;
10667;SDS011;5382;42.136;24.796;2023-03-15T01:41:23;5.43;;;3.65;;
10667;SDS011;5382;42.136;24.796;2023-03-15T01:43:52;8.57;;;4.55;;
10667;SDS011;5382;42.136;24.796;2023-03-15T01:46:21;10.50;;;4.03;;
10667;SDS011;5382;42.136;24.796;2023-03-15T01:48:53;6.97;;;4.13;;
10667;SDS011;5382;42.136;24.796;2023-03-15T01:51:26;5.10;;;3.70;;
10667;SDS011;5382;42.136;24.796;2023-03-15T01:53:56;10.73;;;4.13;;
10667;SDS011;5382;42.136;24.796;2023-03-15T01:56:26;5.28;;;4.22;;
10667;SDS011;5382;42.136;24.796;2023-03-15T01:58:55;6.93;;;4.32;;
10667;SDS011;5382;42.136;24.796;2023-03-15T02:01:24;4.47;;;3.05;;
10667;SDS011;5382;42.136;24.796;2023-03-15T02:03:51;6.45;;;3.83;;
10667;SDS011;5382;42.136;24.796;2023-03-15T02:06:23;4.82;;;3.33;;
10667;SDS011;5382;42.136;24.796;2023-03-15T02:08:52;6.13;;;3.67;;
10667;SDS011;5382;42.136;24.796;2023-03-15T02:11:23;4.88;;;3.53;;
10667;SDS011;5382;42.136;24.796;2023-03-15T02:13:51;5.43;;;3.97;;
10667;SDS011;5382;42.136;24.796;2023-03-15T02:16:21;8.10;;;5.03;;
10667;SDS011;5382;42.136;24.796;2023-03-15T02:18:50;8.52;;;4.57;;
10667;SDS011;5382;42.136;24.796;2023-03-15T02:21:20;9.65;;;5.53;;
10667;SDS011;5382;42.136;24.796;2023-03-15T02:24:00;9.18;;;4.47;;
10667;SDS011;5382;42.136;24.796;2023-03-15T02:26:37;7.47;;;4.20;;
10667;SDS011;5382;42.136;24.796;2023-03-15T02:29:09;7.78;;;4.32;;
10667;SDS011;5382;42.136;24.796;2023-03-15T02:31:36;8.32;;;4.90;;
10667;SDS011;5382;42.136;24.796;2023-03-15T02:34:03;6.88;;;4.53;;
10667;SDS011;5382;42.136;24.796;2023-03-15T02:36:31;5.78;;;4.13;;
10667;SDS011;5382;42.136;24.796;2023-03-15T02:39:00;6.57;;;4.28;;
10667;SDS011;5382;42.136;24.796;2023-03-15T02:41:28;6.82;;;4.38;;
10667;SDS011;5382;42.136;24.796;2023-03-15T02:44:00;8.68;;;4.80;;
10667;SDS011;5382;42.136;24.796;2023-03-15T02:46:32;7.25;;;4.15;;
10667;SDS011;5382;42.136;24.796;2023-03-15T02:48:59;4.38;;;3.67;;
10667;SDS011;5382;42.136;24.796;2023-03-15T02:51:28;6.30;;;4.05;;
10667;SDS011;5382;42.136;24.796;2023-03-15T02:53:55;5.95;;;4.38;;
10667;SDS011;5382;42.136;24.796;2023-03-15T02:56:22;5.10;;;3.92;;
10667;SDS011;5382;42.136;24.796;2023-03-15T02:58:49;4.72;;;4.18;;
10667;SDS011;5382;42.136;24.796;2023-03-15T03:01:16;5.15;;;3.65;;
10667;SDS011;5382;42.136;24.796;2023-03-15T03:03:45;4.72;;;3.83;;
10667;SDS011;5382;42.136;24.796;2023-03-15T03:06:13;11.68;;;3.97;;
10667;SDS011;5382;42.136;24.796;2023-03-15T03:08:41;6.03;;;3.50;;
10667;SDS011;5382;42.136;24.796;2023-03-15T03:11:11;4.05;;;3.38;;
10667;SDS011;5382;42.136;24.796;2023-03-15T03:13:38;5.65;;;3.85;;
10667;SDS011;5382;42.136;24.796;2023-03-15T03:16:05;5.18;;;4.15;;
10667;SDS011;5382;42.136;24.796;2023-03-15T03:18:32;4.60;;;3.90;;
10667;SDS011;5382;42.136;24.796;2023-03-15T03:21:01;8.30;;;4.07;;
10667;SDS011;5382;42.136;24.796;2023-03-15T03:23:30;5.72;;;3.90;;
10667;SDS011;5382;42.136;24.796;2023-03-15T03:25:58;5.43;;;3.67;;
10667;SDS011;5382;42.136;24.796;2023-03-15T03:28:25;7.60;;;4.10;;
10667;SDS011;5382;42.136;24.796;2023-03-15T03:30:54;7.00;;;3.85;;
10667;SDS011;5382;42.136;24.796;2023-03-15T03:33:22;5.40;;;3.60;;
10667;SDS011;5382;42.136;24.796;2023-03-15T03:35:49;6.13;;;3.60;;
10667;SDS011;5382;42.136;24.796;2023-03-15T03:38:17;4.88;;;3.70;;
10667;SDS011;5382;42.136;24.796;2023-03-15T03:40:44;7.00;;;4.07;;
10667;SDS011;5382;42.136;24.796;2023-03-15T03:43:11;7.15;;;3.67;;
10667;SDS011;5382;42.136;24.796;2023-03-15T03:45:38;8.00;;;4.07;;
10667;SDS011;5382;42.136;24.796;2023-03-15T03:48:05;5.30;;;3.65;;
10667;SDS011;5382;42.136;24.796;2023-03-15T03:50:32;6.85;;;4.28;;
10667;SDS011;5382;42.136;24.796;2023-03-15T03:52:58;9.73;;;3.88;;
10667;SDS011;5382;42.136;24.796;2023-03-15T03:55:26;4.05;;;3.38;;
10667;SDS011;5382;42.136;24.796;2023-03-15T03:57:53;9.13;;;4.13;;
10667;SDS011;5382;42.136;24.796;2023-03-15T04:00:20;4.88;;;4.18;;
10667;SDS011;5382;42.136;24.796;2023-03-15T04:02:47;6.90;;;4.35;;
10667;SDS011;5382;42.136;24.796;2023-03-15T04:05:14;7.55;;;4.45;;
10667;SDS011;5382;42.136;24.796;2023-03-15T04:07:41;7.05;;;4.78;;
10667;SDS011;5382;42.136;24.796;2023-03-15T04:10:08;5.88;;;4.45;;
10667;SDS011;5382;42.136;24.796;2023-03-15T04:12:42;6.50;;;4.18;;
10667;SDS011;5382;42.136;24.796;2023-03-15T04:15:09;8.50;;;3.92;;
10667;SDS011;5382;42.136;24.796;2023-03-15T04:17:36;8.55;;;4.78;;
10667;SDS011;5382;42.136;24.796;2023-03-15T04:20:04;6.60;;;4.25;;
10667;SDS011;5382;42.136;24.796;2023-03-15T04:22:36;7.78;;;4.32;;
10667;SDS011;5382;42.136;24.796;2023-03-15T04:25:03;7.63;;;4.15;;
10667;SDS011;5382;42.136;24.796;2023-03-15T04:27:31;8.57;;;4.50;;
10667;SDS011;5382;42.136;24.796;2023-03-15T04:29:59;8.10;;;4.68;;
10667;SDS011;5382;42.136;24.796;2023-03-15T04:32:29;5.80;;;4.45;;
10667;SDS011;5382;42.136;24.796;2023-03-15T04:34:56;6.00;;;3.88;;
10667;SDS011;5382;42.136;24.796;2023-03-15T04:37:22;9.60;;;4.68;;
10667;SDS011;5382;42.136;24.796;2023-03-15T04:39:49;10.40;;;4.45;;
10667;SDS011;5382;42.136;24.796;2023-03-15T04:42:16;6.05;;;4.25;;
10667;SDS011;5382;42.136;24.796;2023-03-15T04:44:43;6.55;;;4.18;;
10667;SDS011;5382;42.136;24.796;2023-03-15T04:47:12;9.10;;;4.40;;
10667;SDS011;5382;42.136;24.796;2023-03-15T04:49:39;6.15;;;3.80;;
10667;SDS011;5382;42.136;24.796;2023-03-15T04:52:05;8.45;;;4.32;;
10667;SDS011;5382;42.136;24.796;2023-03-15T04:54:32;8.38;;;4.15;;
10667;SDS011;5382;42.136;24.796;2023-03-15T04:56:59;6.55;;;3.63;;
10667;SDS011;5382;42.136;24.796;2023-03-15T04:59:26;10.55;;;4.53;;
10667;SDS011;5382;42.136;24.796;2023-03-15T05:01:53;7.13;;;4.68;;
10667;SDS011;5382;42.136;24.796;2023-03-15T05:04:21;5.13;;;3.80;;
10667;SDS011;5382;42.136;24.796;2023-03-15T05:06:47;5.22;;;4.30;;
10667;SDS011;5382;42.136;24.796;2023-03-15T05:09:14;7.80;;;4.43;;
10667;SDS011;5382;42.136;24.796;2023-03-15T05:11:43;7.95;;;4.53;;
10667;SDS011;5382;42.136;24.796;2023-03-15T05:14:11;9.13;;;3.97;;
10667;SDS011;5382;42.136;24.796;2023-03-15T05:16:37;3.85;;;3.40;;
10667;SDS011;5382;42.136;24.796;2023-03-15T05:19:04;8.32;;;4.40;;
10667;SDS011;5382;42.136;24.796;2023-03-15T05:21:32;4.72;;;3.55;;
10667;SDS011;5382;42.136;24.796;2023-03-15T05:23:59;9.27;;;4.75;;
10667;SDS011;5382;42.136;24.796;2023-03-15T05:26:26;7.38;;;4.60;;
10667;SDS011;5382;42.136;24.796;2023-03-15T05:28:53;11.80;;;5.50;;
10667;SDS011;5382;42.136;24.796;2023-03-15T05:31:20;17.30;;;5.35;;
10667;SDS011;5382;42.136;24.796;2023-03-15T05:33:46;12.85;;;3.63;;
10667;SDS011;5382;42.136;24.796;2023-03-15T05:36:13;10.18;;;4.50;;
10667;SDS011;5382;42.136;24.796;2023-03-15T05:38:43;12.40;;;4.95;;
10667;SDS011;5382;42.136;24.796;2023-03-15T05:41:09;9.45;;;5.50;;
10667;SDS011;5382;42.136;24.796;2023-03-15T05:43:36;9.40;;;5.00;;
10667;SDS011;5382;42.136;24.796;2023-03-15T05:46:03;8.23;;;4.22;;
10667;SDS011;5382;42.136;24.796;2023-03-15T05:48:30;7.50;;;4.95;;
10667;SDS011;5382;42.136;24.796;2023-03-15T05:50:57;11.65;;;5.00;;
10667;SDS011;5382;42.136;24.796;2023-03-15T05:53:24;5.78;;;4.28;;
10667;SDS011;5382;42.136;24.796;2023-03-15T05:55:52;8.45;;;5.30;;
10667;SDS011;5382;42.136;24.796;2023-03-15T05:58:18;7.22;;;4.63;;
10667;SDS011;5382;42.136;24.796;2023-03-15T06:00:45;7.63;;;5.68;;
10667;SDS011;5382;42.136;24.796;2023-03-15T06:03:13;9.43;;;5.70;;
10667;SDS011;5382;42.136;24.796;2023-03-15T06:05:40;12.13;;;6.75;;
10667;SDS011;5382;42.136;24.796;2023-03-15T06:08:07;12.65;;;5.18;;
10667;SDS011;5382;42.136;24.796;2023-03-15T06:10:34;8.27;;;5.78;;
10667;SDS011;5382;42.136;24.796;2023-03-15T06:13:03;6.95;;;4.90;;
10667;SDS011;5382;42.136;24.796;2023-03-15T06:15:29;8.27;;;5.13;;
10667;SDS011;5382;42.136;24.796;2023-03-15T06:17:56;9.63;;;5.10;;
10667;SDS011;5382;42.136;24.796;2023-03-15T06:20:23;6.30;;;4.75;;
10667;SDS011;5382;42.136;24.796;2023-03-15T06:22:50;9.30;;;5.60;;
10667;SDS011;5382;42.136;24.796;2023-03-15T06:25:17;7.80;;;5.78;;
10667;SDS011;5382;42.136;24.796;2023-03-15T06:27:44;9.77;;;6.18;;
10667;SDS011;5382;42.136;24.796;2023-03-15T06:30:12;14.48;;;5.97;;
10667;SDS011;5382;42.136;24.796;2023-03-15T06:32:39;11.02;;;4.88;;
10667;SDS011;5382;42.136;24.796;2023-03-15T06:35:06;10.70;;;6.00;;
10667;SDS011;5382;42.136;24.796;2023-03-15T06:37:34;6.80;;;5.55;;
10667;SDS011;5382;42.136;24.796;2023-03-15T06:40:01;8.05;;;5.45;;
10667;SDS011;5382;42.136;24.796;2023-03-15T06:42:30;8.82;;;5.70;;
10667;SDS011;5382;42.136;24.796;2023-03-15T06:44:56;6.60;;;4.28;;
10667;SDS011;5382;42.136;24.796;2023-03-15T06:47:25;13.30;;;4.97;;
10667;SDS011;5382;42.136;24.796;2023-03-15T06:49:52;8.18;;;4.68;;
10667;SDS011;5382;42.136;24.796;2023-03-15T06:52:19;17.65;;;7.63;;
10667;SDS011;5382;42.136;24.796;2023-03-15T06:54:47;13.80;;;6.50;;
10667;SDS011;5382;42.136;24.796;2023-03-15T06:57:13;12.13;;;8.95;;
10667;SDS011;5382;42.136;24.796;2023-03-15T06:59:40;10.98;;;5.55;;
10667;SDS011;5382;42.136;24.796;2023-03-15T07:02:08;7.60;;;6.10;;
10667;SDS011;5382;42.136;24.796;2023-03-15T07:04:41;6.70;;;4.90;;
10667;SDS011;5382;42.136;24.796;2023-03-15T07:07:09;10.23;;;5.53;;
10667;SDS011;5382;42.136;24.796;2023-03-15T07:09:36;10.30;;;5.80;;
10667;SDS011;5382;42.136;24.796;2023-03-15T07:12:03;6.93;;;5.40;;
10667;SDS011;5382;42.136;24.796;2023-03-15T07:14:31;12.25;;;5.57;;
10667;SDS011;5382;42.136;24.796;2023-03-15T07:16:58;7.80;;;5.63;;
10667;SDS011;5382;42.136;24.796;2023-03-15T07:19:25;9.32;;;5.95;;
10667;SDS011;5382;42.136;24.796;2023-03-15T07:21:53;8.20;;;5.50;;
10667;SDS011;5382;42.136;24.796;2023-03-15T07:24:20;11.82;;;6.07;;
10667;SDS011;5382;42.136;24.796;2023-03-15T07:26:47;8.82;;;5.97;;
10667;SDS011;5382;42.136;24.796;2023-03-15T07:29:18;9.32;;;5.35;;
10667;SDS011;5382;42.136;24.796;2023-03-15T07:31:45;9.85;;;5.70;;
10667;SDS011;5382;42.136;24.796;2023-03-15T07:34:12;12.02;;;5.63;;
10667;SDS011;5382;42.136;24.796;2023-03-15T07:36:39;12.35;;;6.97;;
10667;SDS011;5382;42.136;24.796;2023-03-15T07:39:07;9.27;;;5.68;;
10667;SDS011;5382;42.136;24.796;2023-03-15T07:41:34;12.30;;;5.35;;
10667;SDS011;5382;42.136;24.796;2023-03-15T07:44:01;11.43;;;5.80;;
10667;SDS011;5382;42.136;24.796;2023-03-15T07:46:28;6.60;;;5.75;;
10667;SDS011;5382;42.136;24.796;2023-03-15T07:48:55;10.05;;;6.28;;
10667;SDS011;5382;42.136;24.796;2023-03-15T07:51:21;19.70;;;7.28;;
10667;SDS011;5382;42.136;24.796;2023-03-15T07:53:48;9.10;;;5.10;;
10667;SDS011;5382;42.136;24.796;2023-03-15T07:56:16;10.43;;;5.57;;
10667;SDS011;5382;42.136;24.796;2023-03-15T07:58:43;7.22;;;5.03;;
10667;SDS011;5382;42.136;24.796;2023-03-15T08:01:10;11.13;;;6.40;;
10667;SDS011;5382;42.136;24.796;2023-03-15T08:03:37;9.98;;;5.95;;
10667;SDS011;5382;42.136;24.796;2023-03-15T08:06:04;9.20;;;5.32;;
10667;SDS011;5382;42.136;24.796;2023-03-15T08:08:31;10.35;;;6.25;;
10667;SDS011;5382;42.136;24.796;2023-03-15T08:10:58;6.45;;;5.22;;
10667;SDS011;5382;42.136;24.796;2023-03-15T08:13:26;10.30;;;6.35;;
10667;SDS011;5382;42.136;24.796;2023-03-15T08:15:53;9.32;;;6.00;;
10667;SDS011;5382;42.136;24.796;2023-03-15T08:18:20;9.10;;;5.75;;
10667;SDS011;5382;42.136;24.796;2023-03-15T08:20:46;11.35;;;6.07;;
10667;SDS011;5382;42.136;24.796;2023-03-15T08:23:13;13.18;;;6.05;;
10667;SDS011;5382;42.136;24.796;2023-03-15T08:25:41;8.70;;;6.43;;
10667;SDS011;5382;42.136;24.796;2023-03-15T08:28:08;7.97;;;5.45;;
10667;SDS011;5382;42.136;24.796;2023-03-15T08:30:37;9.40;;;6.97;;
10667;SDS011;5382;42.136;24.796;2023-03-15T08:33:04;10.18;;;6.40;;
10667;SDS011;5382;42.136;24.796;2023-03-15T08:35:31;17.80;;;6.57;;
10667;SDS011;5382;42.136;24.796;2023-03-15T08:37:59;8.55;;;6.43;;
10667;SDS011;5382;42.136;24.796;2023-03-15T08:40:27;10.20;;;5.85;;
10667;SDS011;5382;42.136;24.796;2023-03-15T08:42:54;8.90;;;6.40;;
10667;SDS011;5382;42.136;24.796;2023-03-15T08:45:22;10.55;;;6.15;;
10667;SDS011;5382;42.136;24.796;2023-03-15T08:47:54;15.07;;;7.05;;
10667;SDS011;5382;42.136;24.796;2023-03-15T08:50:21;11.00;;;7.30;;
10667;SDS011;5382;42.136;24.796;2023-03-15T08:52:48;8.63;;;6.22;;
10667;SDS011;5382;42.136;24.796;2023-03-15T08:55:15;11.75;;;7.38;;
10667;SDS011;5382;42.136;24.796;2023-03-15T08:57:42;8.38;;;7.10;;
10667;SDS011;5382;42.136;24.796;2023-03-15T09:00:09;10.98;;;8.88;;
10667;SDS011;5382;42.136;24.796;2023-03-15T09:02:42;9.00;;;6.10;;
10667;SDS011;5382;42.136;24.796;2023-03-15T09:05:10;17.20;;;8.60;;
10667;SDS011;5382;42.136;24.796;2023-03-15T09:07:37;15.60;;;9.23;;
10667;SDS011;5382;42.136;24.796;2023-03-15T09:10:07;13.80;;;8.85;;
10667;SDS011;5382;42.136;24.796;2023-03-15T09:12:34;13.65;;;8.38;;
10667;SDS011;5382;42.136;24.796;2023-03-15T09:15:01;10.75;;;9.18;;
10667;SDS011;5382;42.136;24.796;2023-03-15T09:17:28;10.40;;;6.72;;
10667;SDS011;5382;42.136;24.796;2023-03-15T09:19:54;14.60;;;8.88;;
10667;SDS011;5382;42.136;24.796;2023-03-15T09:22:23;14.60;;;8.55;;
10667;SDS011;5382;42.136;24.796;2023-03-15T09:24:49;9.95;;;8.00;;
10667;SDS011;5382;42.136;24.796;2023-03-15T09:27:17;14.60;;;8.90;;
10667;SDS011;5382;42.136;24.796;2023-03-15T09:29:44;9.40;;;7.53;;
10667;SDS011;5382;42.136;24.796;2023-03-15T09:32:11;10.40;;;7.00;;
10667;SDS011;5382;42.136;24.796;2023-03-15T09:34:37;11.75;;;7.43;;
10667;SDS011;5382;42.136;24.796;2023-03-15T09:37:04;11.55;;;9.10;;
10667;SDS011;5382;42.136;24.796;2023-03-15T09:39:36;10.48;;;7.90;;
10667;SDS011;5382;42.136;24.796;2023-03-15T09:42:03;11.43;;;7.82;;
10667;SDS011;5382;42.136;24.796;2023-03-15T09:44:42;14.25;;;8.15;;
10667;SDS011;5382;42.136;24.796;2023-03-15T09:47:17;15.35;;;8.55;;
10667;SDS011;5382;42.136;24.796;2023-03-15T09:49:54;9.80;;;8.00;;
10667;SDS011;5382;42.136;24.796;2023-03-15T09:52:26;8.10;;;7.30;;
10667;SDS011;5382;42.136;24.796;2023-03-15T09:55:02;10.13;;;7.68;;
10667;SDS011;5382;42.136;24.796;2023-03-15T09:57:37;7.78;;;6.43;;
10667;SDS011;5382;42.136;24.796;2023-03-15T10:00:11;13.15;;;8.73;;
10667;SDS011;5382;42.136;24.796;2023-03-15T10:02:42;11.00;;;8.30;;
10667;SDS011;5382;42.136;24.796;2023-03-15T10:05:14;12.13;;;8.43;;
10667;SDS011;5382;42.136;24.796;2023-03-15T10:07:45;12.35;;;8.88;;
10667;SDS011;5382;42.136;24.796;2023-03-15T10:10:18;11.68;;;8.73;;
10667;SDS011;5382;42.136;24.796;2023-03-15T10:12:49;13.73;;;8.60;;
10667;SDS011;5382;42.136;24.796;2023-03-15T10:15:33;9.88;;;7.80;;
10667;SDS011;5382;42.136;24.796;2023-03-15T10:18:11;10.93;;;7.90;;
10667;SDS011;5382;42.136;24.796;2023-03-15T10:20:53;12.88;;;8.50;;
10667;SDS011;5382;42.136;24.796;2023-03-15T10:23:29;9.90;;;8.15;;
10667;SDS011;5382;42.136;24.796;2023-03-15T10:26:08;9.48;;;8.10;;
10667;SDS011;5382;42.136;24.796;2023-03-15T10:28:39;9.82;;;8.43;;
10667;SDS011;5382;42.136;24.796;2023-03-15T10:31:09;10.48;;;8.00;;
10667;SDS011;5382;42.136;24.796;2023-03-15T10:33:38;15.50;;;7.32;;
10667;SDS011;5382;42.136;24.796;2023-03-15T10:36:10;9.90;;;8.48;;
10667;SDS011;5382;42.136;24.796;2023-03-15T10:38:40;10.05;;;8.95;;
10667;SDS011;5382;42.136;24.796;2023-03-15T10:41:08;12.38;;;8.10;;
10667;SDS011;5382;42.136;24.796;2023-03-15T10:43:36;11.68;;;9.27;;
10667;SDS011;5382;42.136;24.796;2023-03-15T10:46:04;10.55;;;8.57;;
10667;SDS011;5382;42.136;24.796;2023-03-15T10:48:33;11.93;;;8.30;;
10667;SDS011;5382;42.136;24.796;2023-03-15T10:51:03;14.02;;;8.60;;
10667;SDS011;5382;42.136;24.796;2023-03-15T10:53:31;9.85;;;7.80;;
10667;SDS011;5382;42.136;24.796;2023-03-15T10:55:58;12.35;;;9.57;;
10667;SDS011;5382;42.136;24.796;2023-03-15T10:58:29;12.57;;;8.75;;
10667;SDS011;5382;42.136;24.796;2023-03-15T11:01:07;11.05;;;8.85;;
10667;SDS011;5382;42.136;24.796;2023-03-15T11:03:38;10.65;;;8.68;;
10667;SDS011;5382;42.136;24.796;2023-03-15T11:06:17;11.20;;;9.45;;
10667;SDS011;5382;42.136;24.796;2023-03-15T11:08:46;11.00;;;9.48;;
10667;SDS011;5382;42.136;24.796;2023-03-15T11:11:13;13.80;;;9.45;;
10667;SDS011;5382;42.136;24.796;2023-03-15T11:13:41;11.40;;;8.57;;
10667;SDS011;5382;42.136;24.796;2023-03-15T11:16:24;9.77;;;8.48;;
10667;SDS011;5382;42.136;24.796;2023-03-15T11:18:54;15.15;;;9.50;;
10667;SDS011;5382;42.136;24.796;2023-03-15T11:21:24;14.13;;;9.27;;
10667;SDS011;5382;42.136;24.796;2023-03-15T11:23:55;14.38;;;9.55;;
10667;SDS011;5382;42.136;24.796;2023-03-15T11:26:25;12.73;;;9.30;;
10667;SDS011;5382;42.136;24.796;2023-03-15T11:28:54;14.43;;;9.15;;
10667;SDS011;5382;42.136;24.796;2023-03-15T11:31:25;12.80;;;9.35;;
10667;SDS011;5382;42.136;24.796;2023-03-15T11:33:54;10.40;;;9.18;;
10667;SDS011;5382;42.136;24.796;2023-03-15T11:36:24;16.40;;;9.48;;
10667;SDS011;5382;42.136;24.796;2023-03-15T11:38:53;13.23;;;9.18;;
10667;SDS011;5382;42.136;24.796;2023-03-15T11:41:27;11.57;;;8.90;;
10667;SDS011;5382;42.136;24.796;2023-03-15T11:44:04;13.60;;;9.57;;
10667;SDS011;5382;42.136;24.796;2023-03-15T11:46:40;16.88;;;9.10;;
10667;SDS011;5382;42.136;24.796;2023-03-15T11:49:12;12.38;;;9.13;;
10667;SDS011;5382;42.136;24.796;2023-03-15T11:51:42;11.52;;;7.97;;
10667;SDS011;5382;42.136;24.796;2023-03-15T11:54:11;11.85;;;9.00;;
10667;SDS011;5382;42.136;24.796;2023-03-15T11:56:47;11.55;;;8.65;;
10667;SDS011;5382;42.136;24.796;2023-03-15T11:59:19;13.32;;;8.93;;
10667;SDS011;5382;42.136;24.796;2023-03-15T12:01:50;11.73;;;8.45;;
10667;SDS011;5382;42.136;24.796;2023-03-15T12:10:32;11.25;;;8.57;;
10667;SDS011;5382;42.136;24.796;2023-03-15T12:13:22;10.85;;;8.32;;
10667;SDS011;5382;42.136;24.796;2023-03-15T12:15:52;9.85;;;7.63;;
10667;SDS011;5382;42.136;24.796;2023-03-15T12:18:21;8.48;;;7.20;;
10667;SDS011;5382;42.136;24.796;2023-03-15T12:20:56;12.15;;;7.05;;
10667;SDS011;5382;42.136;24.796;2023-03-15T12:23:42;10.27;;;7.43;;
10667;SDS011;5382;42.136;24.796;2023-03-15T12:26:21;11.45;;;7.57;;
10667;SDS011;5382;42.136;24.796;2023-03-15T12:28:51;13.32;;;8.82;;
10667;SDS011;5382;42.136;24.796;2023-03-15T12:31:42;8.88;;;7.57;;
10667;SDS011;5382;42.136;24.796;2023-03-15T12:34:22;9.32;;;6.43;;
10667;SDS011;5382;42.136;24.796;2023-03-15T12:36:52;9.77;;;8.10;;
10667;SDS011;5382;42.136;24.796;2023-03-15T12:39:34;13.65;;;7.43;;
10667;SDS011;5382;42.136;24.796;2023-03-15T12:42:03;9.10;;;7.47;;
10667;SDS011;5382;42.136;24.796;2023-03-15T12:44:37;9.85;;;8.20;;
10667;SDS011;5382;42.136;24.796;2023-03-15T12:47:07;13.40;;;7.28;;
10667;SDS011;5382;42.136;24.796;2023-03-15T12:49:36;10.00;;;7.75;;
10667;SDS011;5382;42.136;24.796;2023-03-15T12:52:11;12.05;;;8.80;;
10667;SDS011;5382;42.136;24.796;2023-03-15T12:54:53;11.20;;;8.23;;
10667;SDS011;5382;42.136;24.796;2023-03-15T12:57:26;9.88;;;6.28;;
10667;SDS011;5382;42.136;24.796;2023-03-15T12:59:55;10.40;;;7.47;;
10667;SDS011;5382;42.136;24.796;2023-03-15T13:02:29;10.23;;;6.30;;
10667;SDS011;5382;42.136;24.796;2023-03-15T13:04:59;10.15;;;7.32;;
10667;SDS011;5382;42.136;24.796;2023-03-15T13:07:31;9.68;;;7.30;;
10667;SDS011;5382;42.136;24.796;2023-03-15T13:10:20;13.57;;;7.05;;
10667;SDS011;5382;42.136;24.796;2023-03-15T13:12:59;10.82;;;7.32;;
10667;SDS011;5382;42.136;24.796;2023-03-15T13:15:32;8.77;;;6.20;;
10667;SDS011;5382;42.136;24.796;2023-03-15T13:18:08;8.07;;;6.28;;
10667;SDS011;5382;42.136;24.796;2023-03-15T13:20:44;6.28;;;5.22;;
10667;SDS011;5382;42.136;24.796;2023-03-15T13:23:19;8.45;;;5.35;;
10667;SDS011;5382;42.136;24.796;2023-03-15T13:25:59;6.95;;;5.78;;
10667;SDS011;5382;42.136;24.796;2023-03-15T13:28:37;9.88;;;6.00;;
10667;SDS011;5382;42.136;24.796;2023-03-15T13:31:09;12.35;;;5.60;;
10667;SDS011;5382;42.136;24.796;2023-03-15T13:33:39;10.48;;;5.75;;
10667;SDS011;5382;42.136;24.796;2023-03-15T13:36:10;9.82;;;5.78;;
10667;SDS011;5382;42.136;24.796;2023-03-15T13:38:39;9.13;;;5.40;;
10667;SDS011;5382;42.136;24.796;2023-03-15T13:41:14;10.73;;;5.68;;
10667;SDS011;5382;42.136;24.796;2023-03-15T13:43:44;7.95;;;5.50;;
10667;SDS011;5382;42.136;24.796;2023-03-15T13:46:12;9.48;;;6.53;;
10667;SDS011;5382;42.136;24.796;2023-03-15T13:48:42;8.10;;;6.20;;
10667;SDS011;5382;42.136;24.796;2023-03-15T13:51:16;10.00;;;6.18;;
10667;SDS011;5382;42.136;24.796;2023-03-15T13:53:46;12.55;;;6.57;;
10667;SDS011;5382;42.136;24.796;2023-03-15T13:56:16;9.55;;;5.97;;
10667;SDS011;5382;42.136;24.796;2023-03-15T13:58:45;10.48;;;6.50;;
10667;SDS011;5382;42.136;24.796;2023-03-15T14:01:13;11.82;;;6.55;;
10667;SDS011;5382;42.136;24.796;2023-03-15T14:03:45;14.73;;;6.20;;
10667;SDS011;5382;42.136;24.796;2023-03-15T14:06:19;9.20;;;6.53;;
10667;SDS011;5382;42.136;24.796;2023-03-15T14:08:48;10.52;;;5.88;;
10667;SDS011;5382;42.136;24.796;2023-03-15T14:11:30;8.10;;;5.72;;
10667;SDS011;5382;42.136;24.796;2023-03-15T14:14:01;7.72;;;4.90;;
10667;SDS011;5382;42.136;24.796;2023-03-15T14:16:40;8.98;;;4.80;;
10667;SDS011;5382;42.136;24.796;2023-03-15T14:19:17;8.02;;;4.47;;
10667;SDS011;5382;42.136;24.796;2023-03-15T14:21:45;7.97;;;5.95;;
10667;SDS011;5382;42.136;24.796;2023-03-15T14:24:17;5.63;;;4.80;;
10667;SDS011;5382;42.136;24.796;2023-03-15T14:26:50;7.40;;;5.22;;
10667;SDS011;5382;42.136;24.796;2023-03-15T14:29:19;8.02;;;4.65;;
10667;SDS011;5382;42.136;24.796;2023-03-15T14:31:51;7.78;;;4.05;;
10667;SDS011;5382;42.136;24.796;2023-03-15T14:34:22;6.82;;;4.45;;
10667;SDS011;5382;42.136;24.796;2023-03-15T14:36:58;7.50;;;4.60;;
10667;SDS011;5382;42.136;24.796;2023-03-15T14:39:29;9.40;;;5.07;;
10667;SDS011;5382;42.136;24.796;2023-03-15T14:42:02;6.65;;;4.82;;
10667;SDS011;5382;42.136;24.796;2023-03-15T14:44:29;7.60;;;5.55;;
10667;SDS011;5382;42.136;24.796;2023-03-15T14:46:55;7.78;;;5.70;;
10667;SDS011;5382;42.136;24.796;2023-03-15T14:49:25;9.35;;;5.03;;
10667;SDS011;5382;42.136;24.796;2023-03-15T14:51:54;9.70;;;5.53;;
10667;SDS011;5382;42.136;24.796;2023-03-15T14:54:25;7.72;;;5.82;;
10667;SDS011;5382;42.136;24.796;2023-03-15T14:56:53;8.93;;;5.68;;
10667;SDS011;5382;42.136;24.796;2023-03-15T14:59:20;8.63;;;5.55;;
10667;SDS011;5382;42.136;24.796;2023-03-15T15:01:49;9.13;;;5.43;;